createdAt,value
2023-04-15T00:00:05.999Z,73.3617
2023-04-15T00:01:06.334Z,73.0133
2023-04-15T00:02:06.645Z,73.0997
2023-04-15T00:03:07.037Z,73.1616
2023-04-15T00:04:07.782Z,73.2329
2023-04-15T00:05:08.187Z,73.3232
2023-04-15T00:06:08.550Z,73.3548
2023-04-15T00:07:08.877Z,73.5732
2023-04-15T00:08:09.156Z,73.4495
2023-04-15T00:09:09.528Z,73.4613
2023-04-15T00:10:09.823Z,73.3773
2023-04-15T00:11:10.075Z,73.1452
2023-04-15T00:12:10.389Z,73.1694
2023-04-15T00:13:10.676Z,72.9850
2023-04-15T00:14:10.969Z,72.7911
2023-04-15T00:15:11.229Z,72.7898
2023-04-15T00:16:11.507Z,72.7385
2023-04-15T00:17:11.741Z,72.7624
2023-04-15T00:18:12.038Z,72.2201
2023-04-15T00:19:12.337Z,71.8403
2023-04-15T00:20:12.637Z,71.6002
2023-04-15T00:21:12.928Z,71.7820
2023-04-15T00:22:13.231Z,71.9909
2023-04-15T00:23:13.470Z,72.1494
2023-04-15T00:24:13.767Z,71.9258
2023-04-15T00:25:14.080Z,71.6793
2023-04-15T00:26:14.344Z,71.4774
2023-04-15T00:27:14.669Z,71.3731
2023-04-15T00:28:14.964Z,71.3046
2023-04-15T00:29:15.244Z,71.1843
2023-04-15T00:30:15.559Z,71.2311
2023-04-15T00:31:15.947Z,71.8029
2023-04-15T00:32:16.258Z,71.6540
2023-04-15T00:33:16.508Z,71.6546
2023-04-15T00:34:16.791Z,71.0627
2023-04-15T00:35:17.129Z,70.9246
2023-04-15T00:36:17.416Z,71.1926
2023-04-15T00:37:17.755Z,71.7116
2023-04-15T00:38:18.026Z,72.5530
2023-04-15T00:39:18.296Z,72.7479
2023-04-15T00:40:18.576Z,72.6763
2023-04-15T00:41:18.860Z,73.2466
2023-04-15T00:42:19.101Z,73.5735
2023-04-15T00:43:19.381Z,73.7465
2023-04-15T00:44:19.920Z,73.8180
2023-04-15T00:45:20.252Z,73.7589
2023-04-15T00:46:20.675Z,74.0339
2023-04-15T00:47:21.036Z,74.5884
2023-04-15T00:48:21.360Z,74.6595
2023-04-15T00:49:21.579Z,74.8292
2023-04-15T00:50:21.860Z,74.7465
2023-04-15T00:51:22.114Z,74.7873
2023-04-15T00:52:22.437Z,74.6745
2023-04-15T00:53:22.816Z,74.4845
2023-04-15T00:54:23.140Z,74.4631
2023-04-15T00:55:23.421Z,74.7950
2023-04-15T00:56:23.689Z,74.7987
2023-04-15T00:57:23.999Z,74.3580
2023-04-15T00:58:24.340Z,74.0143
2023-04-15T00:59:24.623Z,73.6473
2023-04-15T01:00:24.963Z,73.7408
2023-04-15T01:01:25.164Z,73.9101
2023-04-15T01:02:25.483Z,74.0145
2023-04-15T01:03:25.947Z,73.7521
2023-04-15T01:04:26.564Z,73.9144
2023-04-15T01:05:26.894Z,73.4417
2023-04-15T01:06:27.173Z,73.4064
2023-04-15T01:07:27.400Z,73.8986
2023-04-15T01:08:27.697Z,74.0409
2023-04-15T01:09:27.979Z,74.1830
2023-04-15T01:10:28.244Z,74.5275
2023-04-15T01:11:28.528Z,74.5256
2023-04-15T01:12:28.736Z,74.3570
2023-04-15T01:13:29.023Z,74.3563
2023-04-15T01:14:29.316Z,74.4987
2023-04-15T01:15:29.629Z,74.3565
2023-04-15T01:16:29.983Z,73.9067
2023-04-15T01:17:30.235Z,73.4057
2023-04-15T01:18:30.484Z,73.1942
2023-04-15T01:19:30.753Z,72.9026
2023-04-15T01:20:31.071Z,72.6740
2023-04-15T01:21:31.361Z,72.6191
2023-04-15T01:22:31.665Z,72.0856
2023-04-15T01:23:31.916Z,71.9641
2023-04-15T01:24:34.326Z,71.5449
2023-04-15T01:25:36.131Z,71.2198
2023-04-15T01:26:36.445Z,71.3729
2023-04-15T01:27:36.719Z,71.3903
2023-04-15T01:28:37.050Z,71.3743
2023-04-15T01:29:37.316Z,71.3755
2023-04-15T01:30:37.588Z,71.3735
2023-04-15T01:31:37.936Z,71.3550
2023-04-15T01:32:38.322Z,71.5078
2023-04-15T01:33:38.629Z,71.2519
2023-04-15T01:34:38.924Z,71.0786
2023-04-15T01:35:39.199Z,71.2817
2023-04-15T01:36:39.478Z,71.7010
2023-04-15T01:37:39.762Z,72.3603
2023-04-15T01:38:40.042Z,72.8724
2023-04-15T01:39:40.328Z,72.7027
2023-04-15T01:40:40.556Z,72.4458
2023-04-15T01:41:40.835Z,72.4003
2023-04-15T01:42:41.147Z,72.2953
2023-04-15T01:43:41.391Z,72.1464
2023-04-15T01:44:41.672Z,72.1022
2023-04-15T01:45:41.900Z,72.1564
2023-04-15T01:46:42.155Z,72.3368
2023-04-15T01:47:42.481Z,72.2346
2023-04-15T01:48:42.730Z,72.1462
2023-04-15T01:49:42.959Z,72.0899
2023-04-15T01:50:43.237Z,71.8556
2023-04-15T01:51:43.542Z,72.0165
2023-04-15T01:52:43.918Z,71.8158
2023-04-15T01:53:44.265Z,71.8597
2023-04-15T01:54:44.629Z,72.1479
2023-04-15T01:55:44.939Z,72.1282
2023-04-15T01:56:45.271Z,71.5019
2023-04-15T01:57:45.610Z,70.7134
2023-04-15T01:58:46.040Z,70.6143
2023-04-15T01:59:46.353Z,70.9006
2023-04-15T02:00:46.702Z,71.5856
2023-04-15T02:01:47.018Z,72.7806
2023-04-15T02:02:47.339Z,73.9378
2023-04-15T02:03:47.891Z,74.8277
2023-04-15T02:04:48.524Z,75.4642
2023-04-15T02:05:48.816Z,75.7942
2023-04-15T02:06:49.170Z,75.5136
2023-04-15T02:07:49.471Z,75.3308
2023-04-15T02:08:49.739Z,75.3532
2023-04-15T02:09:50.106Z,75.5446
2023-04-15T02:10:50.456Z,75.6513
2023-04-15T02:11:50.779Z,75.6410
2023-04-15T02:12:51.075Z,75.2649
2023-04-15T02:13:51.410Z,75.2010
2023-04-15T02:14:51.753Z,75.2018
2023-04-15T02:15:52.237Z,75.2307
2023-04-15T02:16:52.623Z,75.2986
2023-04-15T02:17:52.984Z,74.7267
2023-04-15T02:18:53.329Z,74.6485
2023-04-15T02:19:53.657Z,74.6366
2023-04-15T02:20:53.953Z,74.7267
2023-04-15T02:21:54.281Z,75.0570
2023-04-15T02:22:54.599Z,75.3790
2023-04-15T02:23:54.916Z,75.9160
2023-04-15T02:24:55.222Z,76.2426
2023-04-15T02:25:55.586Z,76.9844
2023-04-15T02:26:55.934Z,77.1754
2023-04-15T02:27:56.209Z,77.3966
2023-04-15T02:28:56.576Z,77.2805
2023-04-15T02:29:56.907Z,77.4524
2023-04-15T02:30:57.320Z,77.8162
2023-04-15T02:31:57.783Z,77.6217
2023-04-15T02:32:58.134Z,77.3677
2023-04-15T02:33:58.444Z,77.1617
2023-04-15T02:34:58.779Z,77.0488
2023-04-15T02:35:59.076Z,76.9822
2023-04-15T02:36:59.384Z,77.0116
2023-04-15T02:37:59.629Z,76.8722
2023-04-15T02:39:00.127Z,76.8104
2023-04-15T02:40:00.661Z,76.8369
2023-04-15T02:41:00.907Z,77.0750
2023-04-15T02:42:01.293Z,76.2866
2023-04-15T02:43:01.542Z,75.9003
2023-04-15T02:44:01.910Z,75.3889
2023-04-15T02:45:02.349Z,75.0063
2023-04-15T02:46:02.853Z,75.0830
2023-04-15T02:47:03.287Z,75.4037
2023-04-15T02:48:03.617Z,75.9024
2023-04-15T02:49:03.914Z,75.6813
2023-04-15T02:50:04.266Z,75.6253
2023-04-15T02:51:04.563Z,75.6326
2023-04-15T02:52:04.848Z,75.6498
2023-04-15T02:53:05.173Z,76.0135
2023-04-15T02:54:05.488Z,76.4320
2023-04-15T02:55:05.796Z,76.6611
2023-04-15T02:56:06.137Z,76.5941
2023-04-15T02:57:06.458Z,76.5757
2023-04-15T02:58:06.816Z,76.7876
2023-04-15T02:59:07.154Z,76.7500
2023-04-15T03:00:07.475Z,76.7328
2023-04-15T03:01:08.128Z,76.6918
2023-04-15T03:02:08.817Z,76.8571
2023-04-15T03:03:09.276Z,76.8962
2023-04-15T03:04:09.723Z,76.8852
2023-04-15T03:05:10.153Z,76.9403
2023-04-15T03:06:10.416Z,77.0785
2023-04-15T03:07:10.753Z,77.0287
2023-04-15T03:08:11.030Z,76.9841
2023-04-15T03:09:11.357Z,76.9847
2023-04-15T03:10:11.693Z,76.9730
2023-04-15T03:11:13.175Z,76.5174
2023-04-15T03:12:13.503Z,76.3478
2023-04-15T03:13:13.849Z,76.3072
2023-04-15T03:14:14.138Z,76.4316
2023-04-15T03:15:14.499Z,76.4809
2023-04-15T03:16:14.868Z,76.4868
2023-04-15T03:17:15.198Z,76.8043
2023-04-15T03:18:15.491Z,76.8662
2023-04-15T03:19:15.849Z,76.9493
2023-04-15T03:20:16.243Z,76.7247
2023-04-15T03:21:16.661Z,76.6652
2023-04-15T03:22:17.001Z,76.4959
2023-04-15T03:23:17.315Z,76.7346
2023-04-15T03:24:17.678Z,77.0260
2023-04-15T03:25:17.969Z,77.2787
2023-04-15T03:26:18.283Z,77.1557
2023-04-15T03:27:18.606Z,77.0163
2023-04-15T03:28:19.094Z,77.0336
2023-04-15T03:29:19.626Z,76.8753
2023-04-15T03:30:19.946Z,76.6630
2023-04-15T03:31:20.315Z,76.4151
2023-04-15T03:32:20.640Z,76.0307
2023-04-15T03:33:20.985Z,75.8683
2023-04-15T03:34:21.367Z,75.9888
2023-04-15T03:35:21.730Z,75.8719
2023-04-15T03:36:22.052Z,75.5669
2023-04-15T03:37:22.381Z,75.5291
2023-04-15T03:38:22.662Z,75.6012
2023-04-15T03:39:22.974Z,75.2856
2023-04-15T03:40:23.271Z,75.3073
2023-04-15T03:41:23.559Z,75.3839
2023-04-15T03:42:23.859Z,75.4047
2023-04-15T03:43:24.234Z,75.8058
2023-04-15T03:44:24.501Z,76.3942
2023-04-15T03:45:24.818Z,76.8508
2023-04-15T03:46:25.189Z,76.8874
2023-04-15T03:47:25.589Z,76.7651
2023-04-15T03:48:25.901Z,76.8766
2023-04-15T03:49:26.241Z,76.6319
2023-04-15T03:50:26.559Z,76.3012
2023-04-15T03:51:26.889Z,76.2553
2023-04-15T03:52:27.165Z,76.4410
2023-04-15T03:53:27.561Z,76.8621
2023-04-15T03:54:27.868Z,77.3378
2023-04-15T03:55:28.212Z,77.2503
2023-04-15T03:56:28.718Z,77.2532
2023-04-15T03:57:29.297Z,77.4098
2023-04-15T03:58:29.615Z,77.3148
2023-04-15T03:59:29.981Z,77.1156
2023-04-15T04:00:30.294Z,77.1180
2023-04-15T04:01:30.714Z,77.1449
2023-04-15T04:02:31.114Z,77.1725
2023-04-15T04:03:31.671Z,77.2086
2023-04-15T04:04:32.184Z,77.3197
2023-04-15T04:05:32.817Z,77.2880
2023-04-15T04:06:33.318Z,77.3281
2023-04-15T04:07:33.673Z,77.2080
2023-04-15T04:08:33.977Z,77.2682
2023-04-15T04:09:34.314Z,77.1853
2023-04-15T04:10:34.617Z,77.1358
2023-04-15T04:11:36.353Z,77.2103
2023-04-15T04:12:36.646Z,77.3795
2023-04-15T04:13:36.970Z,77.2759
2023-04-15T04:14:37.290Z,77.2347
2023-04-15T04:15:37.757Z,77.2085
2023-04-15T04:16:38.119Z,77.1490
2023-04-15T04:17:38.431Z,77.0321
2023-04-15T04:18:38.743Z,77.0713
2023-04-15T04:19:39.038Z,77.1084
2023-04-15T04:20:39.366Z,76.9466
2023-04-15T04:21:39.730Z,76.9930
2023-04-15T04:22:40.112Z,76.9347
2023-04-15T04:23:40.467Z,76.9949
2023-04-15T04:24:40.742Z,77.0259
2023-04-15T04:25:41.052Z,76.6316
2023-04-15T04:26:41.357Z,76.3589
2023-04-15T04:27:41.648Z,76.4147
2023-04-15T04:28:41.930Z,76.2559
2023-04-15T04:29:42.269Z,76.3678
2023-04-15T04:30:42.605Z,76.4990
2023-04-15T04:31:42.932Z,76.6502
2023-04-15T04:32:43.300Z,76.7885
2023-04-15T04:33:43.593Z,76.9229
2023-04-15T04:34:43.948Z,77.0522
2023-04-15T04:35:44.321Z,76.9520
2023-04-15T04:36:44.660Z,77.2615
2023-04-15T04:37:45.027Z,77.3512
2023-04-15T04:38:45.327Z,77.0408
2023-04-15T04:39:45.669Z,76.6861
2023-04-15T04:40:46.011Z,76.5070
2023-04-15T04:41:46.359Z,76.0601
2023-04-15T04:42:46.687Z,75.9947
2023-04-15T04:43:47.007Z,75.8182
2023-04-15T04:44:47.309Z,75.4413
2023-04-15T04:45:47.714Z,75.4397
2023-04-15T04:46:48.023Z,75.3742
2023-04-15T04:47:48.331Z,75.4237
2023-04-15T04:48:48.684Z,75.3594
2023-04-15T04:49:49.013Z,75.4262
2023-04-15T04:50:49.374Z,75.3320
2023-04-15T04:51:49.629Z,75.3813
2023-04-15T04:52:49.987Z,75.3163
2023-04-15T04:53:50.322Z,75.3869
2023-04-15T04:54:50.640Z,75.3984
2023-04-15T04:55:50.976Z,75.0013
2023-04-15T04:56:51.325Z,74.7334
2023-04-15T04:57:51.699Z,74.5535
2023-04-15T04:58:52.055Z,74.6401
2023-04-15T04:59:52.354Z,74.5911
2023-04-15T05:00:52.697Z,74.4884
2023-04-15T05:01:53.056Z,74.5434
2023-04-15T05:02:53.538Z,74.5213
2023-04-15T05:03:54.135Z,74.5905
2023-04-15T05:04:54.590Z,74.7567
2023-04-15T05:05:54.966Z,74.9873
2023-04-15T05:06:55.336Z,74.9229
2023-04-15T05:07:55.756Z,74.9408
2023-04-15T05:08:56.049Z,75.3012
2023-04-15T05:09:56.397Z,75.4364
2023-04-15T05:10:56.741Z,75.6061
2023-04-15T05:11:57.049Z,75.7257
2023-04-15T05:12:57.384Z,75.4827
2023-04-15T05:13:57.707Z,75.3947
2023-04-15T05:14:58.079Z,75.5197
2023-04-15T05:15:58.440Z,75.8549
2023-04-15T05:16:58.762Z,76.1249
2023-04-15T05:17:59.194Z,76.3671
2023-04-15T05:18:59.632Z,76.2621
2023-04-15T05:20:00.211Z,76.5777
2023-04-15T05:21:00.563Z,76.6099
2023-04-15T05:22:00.872Z,76.2442
2023-04-15T05:23:01.244Z,76.1999
2023-04-15T05:24:01.553Z,75.9822
2023-04-15T05:25:01.884Z,75.8276
2023-04-15T05:26:02.218Z,75.5615
2023-04-15T05:27:02.590Z,75.4350
2023-04-15T05:28:03.008Z,75.3393
2023-04-15T05:29:03.457Z,75.4163
2023-04-15T05:30:03.947Z,75.3809
2023-04-15T05:31:04.321Z,75.2726
2023-04-15T05:32:04.652Z,74.9025
2023-04-15T05:33:05.105Z,75.0534
2023-04-15T05:34:05.512Z,75.2488
2023-04-15T05:35:05.839Z,75.1607
2023-04-15T05:36:06.172Z,75.1783
2023-04-15T05:37:06.507Z,75.0938
2023-04-15T05:38:06.857Z,74.8634
2023-04-15T05:39:07.222Z,74.8761
2023-04-15T05:40:07.590Z,74.8748
2023-04-15T05:41:07.888Z,74.6608
2023-04-15T05:42:08.260Z,74.7907
2023-04-15T05:43:08.605Z,74.8535
2023-04-15T05:44:08.896Z,74.9532
2023-04-15T05:45:09.307Z,75.0282
2023-04-15T05:46:09.736Z,74.8650
2023-04-15T05:47:10.026Z,74.6323
2023-04-15T05:48:10.443Z,74.4234
2023-04-15T05:49:10.814Z,74.2349
2023-04-15T05:50:11.160Z,74.5392
2023-04-15T05:51:11.640Z,74.7128
2023-04-15T05:52:11.964Z,74.3500
2023-04-15T05:53:12.280Z,74.3474
2023-04-15T05:54:12.585Z,74.4340
2023-04-15T05:55:12.916Z,74.5532
2023-04-15T05:56:13.242Z,74.3335
2023-04-15T05:57:13.562Z,74.2236
2023-04-15T05:58:13.887Z,74.3323
2023-04-15T05:59:14.177Z,74.1101
2023-04-15T06:00:14.569Z,74.2540
2023-04-15T06:01:14.892Z,74.4606
2023-04-15T06:02:15.335Z,74.5294
2023-04-15T06:03:15.704Z,74.5257
2023-04-15T06:04:16.028Z,73.9722
2023-04-15T06:05:16.372Z,73.4237
2023-04-15T06:06:16.890Z,73.4509
2023-04-15T06:07:17.288Z,73.4882
2023-04-15T06:08:17.615Z,73.4407
2023-04-15T06:09:17.885Z,73.5344
2023-04-15T06:10:18.164Z,73.3764
2023-04-15T06:11:18.437Z,73.1571
2023-04-15T06:12:18.867Z,73.2036
2023-04-15T06:13:19.127Z,73.5958
2023-04-15T06:14:19.423Z,73.6409
2023-04-15T06:15:19.797Z,73.6432
2023-04-15T06:16:20.081Z,73.2639
2023-04-15T06:17:20.451Z,73.1758
2023-04-15T06:18:20.702Z,73.0052
2023-04-15T06:19:21.149Z,73.0017
2023-04-15T06:20:21.397Z,72.9858
2023-04-15T06:21:21.740Z,73.1857
2023-04-15T06:22:22.091Z,72.9567
2023-04-15T06:23:22.411Z,73.0266
2023-04-15T06:24:22.732Z,73.0053
2023-04-15T06:25:23.047Z,72.4890
2023-04-15T06:26:23.321Z,72.0667
2023-04-15T06:27:23.654Z,71.7941
2023-04-15T06:28:23.940Z,71.7743
2023-04-15T06:29:24.251Z,72.1204
2023-04-15T06:30:24.639Z,71.9379
2023-04-15T06:31:24.973Z,71.6140
2023-04-15T06:32:25.297Z,71.6871
2023-04-15T06:33:25.597Z,72.2145
2023-04-15T06:34:25.941Z,72.3816
2023-04-15T06:35:26.241Z,72.5813
2023-04-15T06:36:26.608Z,72.3417
2023-04-15T06:37:26.914Z,71.9624
2023-04-15T06:38:27.334Z,71.9505
2023-04-15T06:39:27.661Z,70.6586
2023-04-15T06:40:27.996Z,70.8801
2023-04-15T06:41:28.255Z,71.3994
2023-04-15T06:42:28.575Z,71.5943
2023-04-15T06:43:28.907Z,71.6590
2023-04-15T06:44:29.268Z,71.4273
2023-04-15T06:45:29.678Z,71.0932
2023-04-15T06:46:30.005Z,71.0736
2023-04-15T06:47:30.370Z,70.7960
2023-04-15T06:48:30.794Z,70.2637
2023-04-15T06:49:31.146Z,70.5226
2023-04-15T06:50:31.517Z,70.5899
2023-04-15T06:51:31.839Z,70.3572
2023-04-15T06:52:32.184Z,70.5540
2023-04-15T06:53:32.617Z,70.1443
2023-04-15T06:54:32.943Z,70.2172
2023-04-15T06:55:33.295Z,69.5448
2023-04-15T06:56:33.629Z,69.6751
2023-04-15T06:57:35.160Z,69.9367
2023-04-15T06:58:35.603Z,69.8549
2023-04-15T06:59:36.132Z,70.8279
2023-04-15T07:00:36.467Z,70.8154
2023-04-15T07:01:36.903Z,70.9908
2023-04-15T07:02:37.319Z,70.9596
2023-04-15T07:03:37.768Z,70.0618
2023-04-15T07:04:38.351Z,69.8750
2023-04-15T07:05:38.745Z,70.2584
2023-04-15T07:06:39.242Z,71.0501
2023-04-15T07:07:39.594Z,70.3250
2023-04-15T07:08:39.902Z,70.1430
2023-04-15T07:09:40.328Z,70.0038
2023-04-15T07:10:40.600Z,69.9460
2023-04-15T07:11:40.956Z,69.7888
2023-04-15T07:12:41.274Z,70.1063
2023-04-15T07:13:41.650Z,69.7346
2023-04-15T07:14:41.989Z,69.8511
2023-04-15T07:15:42.319Z,70.2673
2023-04-15T07:16:42.720Z,70.4489
2023-04-15T07:17:43.107Z,70.7374
2023-04-15T07:18:43.473Z,71.4894
2023-04-15T07:19:43.819Z,71.6012
2023-04-15T07:20:44.111Z,71.8043
2023-04-15T07:21:44.470Z,71.1675
2023-04-15T07:22:44.805Z,71.9537
2023-04-15T07:23:45.174Z,72.7159
2023-04-15T07:24:45.583Z,72.4731
2023-04-15T07:25:45.934Z,72.5239
2023-04-15T07:26:46.299Z,72.8825
2023-04-15T07:27:46.624Z,72.4695
2023-04-15T07:28:46.968Z,72.9460
2023-04-15T07:29:47.399Z,72.9916
2023-04-15T07:30:47.818Z,73.6261
2023-04-15T07:31:48.196Z,73.9320
2023-04-15T07:32:48.529Z,74.3008
2023-04-15T07:33:48.962Z,73.9830
2023-04-15T07:34:49.358Z,74.1439
2023-04-15T07:35:49.750Z,74.6437
2023-04-15T07:36:50.075Z,74.3274
2023-04-15T07:37:50.437Z,74.2006
2023-04-15T07:38:50.836Z,74.8466
2023-04-15T07:39:51.325Z,75.0502
2023-04-15T07:40:51.676Z,75.0646
2023-04-15T07:41:52.141Z,75.1919
2023-04-15T07:42:52.515Z,75.3129
2023-04-15T07:43:52.838Z,75.2484
2023-04-15T07:44:53.242Z,74.8217
2023-04-15T07:45:53.642Z,74.6587
2023-04-15T07:46:54.035Z,74.7572
2023-04-15T07:47:54.401Z,75.1168
2023-04-15T07:48:54.745Z,74.8584
2023-04-15T07:49:55.095Z,74.6580
2023-04-15T07:50:55.445Z,74.3224
2023-04-15T07:51:55.791Z,74.0260
2023-04-15T07:52:56.128Z,73.7307
2023-04-15T07:53:56.492Z,73.8812
2023-04-15T07:54:56.811Z,74.5485
2023-04-15T07:55:57.188Z,75.2895
2023-04-15T07:56:57.569Z,75.2322
2023-04-15T07:57:57.907Z,75.3604
2023-04-15T07:58:58.292Z,75.2537
2023-04-15T07:59:58.593Z,74.7911
2023-04-15T08:00:58.963Z,74.1839
2023-04-15T08:01:59.335Z,73.9372
2023-04-15T08:02:59.819Z,73.3256
2023-04-15T08:04:00.763Z,73.3380
2023-04-15T08:05:01.265Z,73.7425
2023-04-15T08:06:01.590Z,73.5115
2023-04-15T08:07:01.943Z,73.2207
2023-04-15T08:08:02.293Z,73.1985
2023-04-15T08:09:02.885Z,72.9962
2023-04-15T08:10:03.317Z,73.3412
2023-04-15T08:11:03.662Z,73.7331
2023-04-15T08:12:04.022Z,73.7337
2023-04-15T08:13:04.352Z,73.6651
2023-04-15T08:14:04.696Z,73.7471
2023-04-15T08:15:04.996Z,73.3760
2023-04-15T08:16:05.415Z,73.0765
2023-04-15T08:17:05.792Z,73.1409
2023-04-15T08:18:06.107Z,73.5916
2023-04-15T08:19:06.471Z,73.7138
2023-04-15T08:20:06.839Z,73.0251
2023-04-15T08:21:07.170Z,72.4987
2023-04-15T08:22:15.636Z,72.2637
2023-04-15T08:23:08.562Z,72.4386
2023-04-15T08:24:08.905Z,72.5670
2023-04-15T08:25:09.237Z,72.3942
2023-04-15T08:26:09.563Z,72.3491
2023-04-15T08:27:09.907Z,72.0574
2023-04-15T08:28:10.225Z,72.5838
2023-04-15T08:29:10.558Z,71.9458
2023-04-15T08:30:10.912Z,71.3572
2023-04-15T08:31:11.256Z,71.2974
2023-04-15T08:32:11.695Z,71.4427
2023-04-15T08:33:12.026Z,71.4783
2023-04-15T08:34:12.375Z,71.4995
2023-04-15T08:35:12.698Z,71.2042
2023-04-15T08:36:13.044Z,71.4698
2023-04-15T08:37:13.469Z,71.4802
2023-04-15T08:38:13.833Z,70.8731
2023-04-15T08:39:14.210Z,70.5778
2023-04-15T08:40:14.548Z,70.2490
2023-04-15T08:41:14.854Z,70.1987
2023-04-15T08:42:15.217Z,71.0570
2023-04-15T08:43:15.570Z,70.6132
2023-04-15T08:44:15.903Z,70.3905
2023-04-15T08:45:16.334Z,70.6504
2023-04-15T08:46:16.681Z,70.1481
2023-04-15T08:47:17.047Z,70.9163
2023-04-15T08:48:17.418Z,70.9586
2023-04-15T08:49:17.765Z,70.5431
2023-04-15T08:50:18.088Z,70.2843
2023-04-15T08:51:18.395Z,69.9549
2023-04-15T08:52:18.757Z,69.4542
2023-04-15T08:53:19.079Z,69.3668
2023-04-15T08:54:19.437Z,69.3851
2023-04-15T08:55:19.730Z,68.8027
2023-04-15T08:56:20.042Z,68.5465
2023-04-15T08:57:20.454Z,68.1783
2023-04-15T08:58:20.799Z,68.0609
2023-04-15T08:59:21.163Z,67.3952
2023-04-15T09:00:21.437Z,67.4120
2023-04-15T09:01:21.873Z,68.0266
2023-04-15T09:02:22.424Z,68.2596
2023-04-15T09:03:23.064Z,68.9726
2023-04-15T09:04:23.420Z,71.3414
2023-04-15T09:05:23.764Z,71.9356
2023-04-15T09:06:24.084Z,73.3514
2023-04-15T09:07:24.472Z,74.6842
2023-04-15T09:08:24.871Z,75.5268
2023-04-15T09:09:25.334Z,75.6826
2023-04-15T09:10:25.677Z,76.1134
2023-04-15T09:11:26.052Z,77.3411
2023-04-15T09:12:26.316Z,77.3429
2023-04-15T09:13:26.662Z,77.8962
2023-04-15T09:14:26.987Z,78.9384
2023-04-15T09:15:27.320Z,79.0563
2023-04-15T09:16:27.682Z,78.3280
2023-04-15T09:17:28.128Z,78.9106
2023-04-15T09:18:28.400Z,77.2051
2023-04-15T09:19:28.732Z,77.8264
2023-04-15T09:20:29.077Z,78.3782
2023-04-15T09:21:29.373Z,79.1406
2023-04-15T09:22:29.708Z,81.0503
2023-04-15T09:23:30.155Z,78.6934
2023-04-15T09:24:30.510Z,79.1783
2023-04-15T09:25:32.776Z,78.9567
2023-04-15T09:26:31.280Z,78.4528
2023-04-15T09:27:31.607Z,79.9462
2023-04-15T09:28:31.942Z,80.2964
2023-04-15T09:29:32.331Z,79.2049
2023-04-15T09:30:32.692Z,80.4591
2023-04-15T09:31:33.026Z,76.8680
2023-04-15T09:32:33.352Z,76.9866
2023-04-15T09:33:34.179Z,77.7090
2023-04-15T09:34:34.551Z,77.3294
2023-04-15T09:35:34.879Z,73.8212
2023-04-15T09:36:35.169Z,75.7123
2023-04-15T09:37:35.546Z,74.9555
2023-04-15T09:38:35.951Z,75.0177
2023-04-15T09:39:36.326Z,77.2539
2023-04-15T09:40:36.691Z,76.1237
2023-04-15T09:41:37.184Z,76.3730
2023-04-15T09:42:37.610Z,76.4371
2023-04-15T09:43:38.083Z,74.2606
2023-04-15T09:44:38.400Z,73.8056
2023-04-15T09:45:38.741Z,73.2994
2023-04-15T09:46:39.071Z,76.1688
2023-04-15T09:47:39.386Z,75.2801
2023-04-15T09:48:39.701Z,73.2349
2023-04-15T09:49:40.045Z,72.3143
2023-04-15T09:50:40.366Z,71.4216
2023-04-15T09:51:41.294Z,70.3344
2023-04-15T09:52:41.724Z,70.4520
2023-04-15T09:53:42.160Z,70.0036
2023-04-15T09:54:42.500Z,72.0291
2023-04-15T09:55:42.887Z,70.8411
2023-04-15T09:56:43.254Z,69.2254
2023-04-15T09:57:44.572Z,70.1315
2023-04-15T09:58:44.994Z,69.2933
2023-04-15T09:59:45.300Z,68.0972
2023-04-15T10:00:45.616Z,67.7378
2023-04-15T10:01:46.162Z,68.9963
2023-04-15T10:02:46.607Z,72.2700
2023-04-15T10:03:47.089Z,75.0216
2023-04-15T10:04:47.430Z,71.9665
2023-04-15T10:05:47.833Z,70.6240
2023-04-15T10:06:48.132Z,71.8456
2023-04-15T10:07:48.496Z,71.1131
2023-04-15T10:08:48.967Z,72.1354
2023-04-15T10:09:49.379Z,71.0563
2023-04-15T10:10:49.706Z,71.9447
2023-04-15T10:11:50.117Z,72.7803
2023-04-15T10:12:50.428Z,73.9311
2023-04-15T10:13:50.775Z,72.5152
2023-04-15T10:14:51.059Z,72.9108
2023-04-15T10:15:51.437Z,74.2635
2023-04-15T10:16:51.847Z,72.7141
2023-04-15T10:17:52.457Z,73.2726
2023-04-15T10:18:52.831Z,73.8149
2023-04-15T10:19:53.200Z,75.6658
2023-04-15T10:20:53.517Z,74.8002
2023-04-15T10:21:53.868Z,73.6155
2023-04-15T10:22:54.229Z,73.5786
2023-04-15T10:23:54.587Z,75.2268
2023-04-15T10:24:54.912Z,74.9249
2023-04-15T10:25:55.282Z,75.6087
2023-04-15T10:26:55.688Z,75.7336
2023-04-15T10:27:56.060Z,73.8153
2023-04-15T10:28:56.946Z,75.5752
2023-04-15T10:29:58.255Z,75.0546
2023-04-15T10:30:59.147Z,73.5404
2023-04-15T10:31:59.673Z,74.3673
2023-04-15T10:33:00.280Z,72.9848
2023-04-15T10:34:01.014Z,73.3589
2023-04-15T10:35:01.512Z,74.7351
2023-04-15T10:36:02.076Z,74.5075
2023-04-15T10:37:02.360Z,74.5054
2023-04-15T10:38:02.712Z,75.9335
2023-04-15T10:39:03.066Z,75.1561
2023-04-15T10:40:05.535Z,74.4038
2023-04-15T10:41:05.931Z,73.8706
2023-04-15T10:42:06.394Z,73.8990
2023-04-15T10:43:06.735Z,73.6459
2023-04-15T10:44:07.093Z,73.9178
2023-04-15T10:45:07.413Z,73.9416
2023-04-15T10:46:07.759Z,73.1707
2023-04-15T10:47:08.059Z,73.2614
2023-04-15T10:48:08.443Z,73.8726
2023-04-15T10:49:08.789Z,71.7989
2023-04-15T10:50:09.145Z,73.5164
2023-04-15T10:51:09.462Z,74.8239
2023-04-15T10:52:09.812Z,77.2260
2023-04-15T10:53:10.105Z,77.3052
2023-04-15T10:54:10.440Z,77.0780
2023-04-15T10:55:10.742Z,77.7030
2023-04-15T10:56:11.085Z,77.7280
2023-04-15T10:57:11.383Z,78.1376
2023-04-15T10:58:11.735Z,76.9287
2023-04-15T10:59:12.101Z,76.6151
2023-04-15T11:00:12.490Z,76.4105
2023-04-15T11:01:12.793Z,75.0103
2023-04-15T11:02:13.262Z,77.6673
2023-04-15T11:03:13.710Z,79.4614
2023-04-15T11:04:14.260Z,77.9472
2023-04-15T11:05:14.566Z,78.3100
2023-04-15T11:06:14.921Z,78.3800
2023-04-15T11:07:15.250Z,76.2459
2023-04-15T11:08:15.569Z,76.4997
2023-04-15T11:09:15.967Z,76.3785
2023-04-15T11:10:16.292Z,76.1975
2023-04-15T11:11:16.634Z,77.0796
2023-04-15T11:12:17.002Z,75.2018
2023-04-15T11:13:17.433Z,75.3813
2023-04-15T11:14:17.895Z,74.7506
2023-04-15T11:15:18.252Z,74.6940
2023-04-15T11:16:18.657Z,74.7240
2023-04-15T11:17:18.931Z,74.6041
2023-04-15T11:18:19.277Z,76.2209
2023-04-15T11:19:19.639Z,74.4772
2023-04-15T11:20:19.958Z,74.2913
2023-04-15T11:21:20.260Z,75.0923
2023-04-15T11:22:20.617Z,76.2556
2023-04-15T11:23:20.889Z,76.8833
2023-04-15T11:24:21.269Z,77.6326
2023-04-15T11:25:22.249Z,77.9500
2023-04-15T11:26:22.591Z,77.8060
2023-04-15T11:27:22.961Z,78.0410
2023-04-15T11:28:23.352Z,77.9540
2023-04-15T11:29:23.757Z,78.4237
2023-04-15T11:30:24.194Z,78.7655
2023-04-15T11:31:24.620Z,79.0220
2023-04-15T11:32:25.298Z,80.6122
2023-04-15T11:33:25.991Z,80.1111
2023-04-15T11:34:26.411Z,80.7810
2023-04-15T11:35:26.785Z,77.9828
2023-04-15T11:36:27.200Z,78.2556
2023-04-15T11:37:27.532Z,77.8688
2023-04-15T11:38:27.874Z,77.0998
2023-04-15T11:39:28.303Z,77.2996
2023-04-15T11:40:28.654Z,78.1213
2023-04-15T11:41:29.030Z,78.5260
2023-04-15T11:42:39.280Z,78.9630
2023-04-15T11:43:30.658Z,79.4096
2023-04-15T11:44:31.103Z,79.4692
2023-04-15T11:45:31.515Z,79.4069
2023-04-15T11:46:32.240Z,79.7542
2023-04-15T11:47:32.945Z,78.6882
2023-04-15T11:48:33.405Z,79.2062
2023-04-15T11:49:33.771Z,79.2662
2023-04-15T11:50:34.197Z,79.5725
2023-04-15T11:51:34.571Z,79.4202
2023-04-15T11:52:34.985Z,79.5327
2023-04-15T11:53:35.373Z,80.0773
2023-04-15T11:54:35.777Z,82.1446
2023-04-15T11:55:36.208Z,80.4771
2023-04-15T11:56:36.584Z,80.2244
2023-04-15T11:57:36.983Z,79.5207
2023-04-15T11:58:37.371Z,79.6595
2023-04-15T11:59:45.446Z,77.1994
2023-04-15T12:00:38.829Z,76.8862
2023-04-15T12:01:39.219Z,76.6382
2023-04-15T12:02:39.669Z,77.9216
2023-04-15T12:03:40.277Z,77.2337
2023-04-15T12:04:41.208Z,76.5804
2023-04-15T12:05:41.891Z,75.9715
2023-04-15T12:06:42.310Z,75.5751
2023-04-15T12:07:42.680Z,75.5858
2023-04-15T12:08:43.048Z,75.1877
2023-04-15T12:09:43.417Z,73.6810